createdAt,value
2022-11-26T00:00:53.742Z,30.47
2022-11-26T00:03:22.037Z,31.75
2022-11-26T00:05:52.843Z,24.90
2022-11-26T00:08:24.266Z,36.30
2022-11-26T00:10:54.412Z,31.13
2022-11-26T00:13:25.836Z,30.50
2022-11-26T00:15:54.786Z,24.00
2022-11-26T00:18:26.791Z,33.25
2022-11-26T00:20:57.997Z,36.25
2022-11-26T00:23:28.772Z,31.58
2022-11-26T00:25:58.759Z,28.98
2022-11-26T00:28:33.695Z,35.78
2022-11-26T00:31:04.471Z,24.30
2022-11-26T00:33:33.100Z,33.20
2022-11-26T00:36:05.094Z,29.83
2022-11-26T00:38:33.386Z,37.35
2022-11-26T00:41:02.024Z,33.22
2022-11-26T00:43:31.728Z,28.75
2022-11-26T00:45:59.807Z,36.85
2022-11-26T00:48:27.874Z,39.67
2022-11-26T00:50:55.882Z,34.03
2022-11-26T00:53:27.421Z,28.88
2022-11-26T00:55:55.461Z,28.50
2022-11-26T00:58:28.591Z,36.05
2022-11-26T01:01:00.039Z,29.92
2022-11-26T01:03:29.713Z,36.85
2022-11-26T01:06:01.429Z,35.13
2022-11-26T01:08:33.014Z,29.80
2022-11-26T01:11:02.378Z,38.80
2022-11-26T01:13:31.106Z,28.57
2022-11-26T01:16:04.887Z,32.47
2022-11-26T01:18:36.657Z,33.70
2022-11-26T01:21:04.865Z,31.55
2022-11-26T01:23:32.843Z,31.75
2022-11-26T01:26:06.212Z,40.08
2022-11-26T01:28:34.727Z,29.73
2022-11-26T01:31:04.103Z,32.78
2022-11-26T01:33:32.125Z,35.53
2022-11-26T01:36:03.135Z,36.20
2022-11-26T01:38:31.352Z,32.70
2022-11-26T01:41:13.699Z,37.13
2022-11-26T01:43:43.882Z,26.65
2022-11-26T01:46:17.541Z,27.08
2022-11-26T01:48:46.834Z,34.22
2022-11-26T01:51:16.783Z,28.55
2022-11-26T01:53:48.889Z,27.83
2022-11-26T01:56:34.411Z,24.48
2022-11-26T01:59:12.702Z,30.35
2022-11-26T02:01:42.497Z,31.98
2022-11-26T02:04:14.832Z,33.40
2022-11-26T02:06:45.258Z,25.65
2022-11-26T02:09:14.654Z,33.83
2022-11-26T02:11:42.754Z,32.53
2022-11-26T02:14:15.717Z,31.90
2022-11-26T02:17:06.743Z,29.30
2022-11-26T02:20:17.796Z,33.92
2022-11-26T02:23:07.505Z,33.53
2022-11-26T02:25:54.434Z,33.97
2022-11-26T02:28:40.903Z,31.10
2022-11-26T02:31:12.887Z,37.03
2022-11-26T02:33:48.775Z,30.85
2022-11-26T02:36:22.370Z,34.30
2022-11-26T02:38:51.673Z,35.83
2022-11-26T02:41:19.674Z,34.05
2022-11-26T02:43:48.285Z,30.63
2022-11-26T02:46:21.249Z,29.20
2022-11-26T02:48:53.070Z,35.30
2022-11-26T02:51:25.019Z,29.98
2022-11-26T02:53:54.737Z,34.05
2022-11-26T02:56:26.037Z,29.88
2022-11-26T02:58:55.545Z,31.85
2022-11-26T03:01:44.358Z,28.77
2022-11-26T03:04:18.893Z,32.45
2022-11-26T03:06:47.813Z,29.23
2022-11-26T03:09:18.125Z,30.75
2022-11-26T03:14:14.496Z,27.00
2022-11-26T03:16:44.091Z,24.65
2022-11-26T03:19:12.131Z,24.88
2022-11-26T03:21:40.291Z,34.85
2022-11-26T03:24:08.586Z,29.85
2022-11-26T03:26:36.528Z,35.33
2022-11-26T03:29:06.642Z,30.17
2022-11-26T03:31:35.013Z,34.25
2022-11-26T03:34:04.392Z,33.97
2022-11-26T03:36:32.470Z,32.93
2022-11-26T03:39:00.517Z,33.58
2022-11-26T03:41:28.531Z,33.83
2022-11-26T03:43:56.881Z,36.35
2022-11-26T03:46:25.081Z,32.22
2022-11-26T03:48:53.195Z,31.90
2022-11-26T03:51:22.831Z,35.92
2022-11-26T03:53:51.362Z,39.95
2022-11-26T03:56:19.634Z,38.00
2022-11-26T03:58:47.608Z,35.88
2022-11-26T04:01:16.017Z,38.90
2022-11-26T04:03:44.149Z,40.25
2022-11-26T04:06:12.360Z,34.60
2022-11-26T04:08:41.915Z,38.38
2022-11-26T04:11:12.003Z,28.42
2022-11-26T04:13:40.182Z,30.00
2022-11-26T04:16:08.775Z,27.00
2022-11-26T04:18:37.408Z,34.55
2022-11-26T04:21:07.180Z,28.23
2022-11-26T04:23:36.345Z,25.20
2022-11-26T04:26:06.091Z,32.75
2022-11-26T04:28:34.380Z,35.33
2022-11-26T04:31:02.557Z,28.30
2022-11-26T04:33:30.740Z,32.58
2022-11-26T04:35:58.955Z,30.70
2022-11-26T04:38:27.057Z,33.17
2022-11-26T04:40:54.987Z,28.73
2022-11-26T04:43:24.441Z,35.13
2022-11-26T04:45:52.660Z,30.63
2022-11-26T04:48:20.781Z,29.60
2022-11-26T04:50:52.722Z,38.63
2022-11-26T04:53:22.143Z,39.75
2022-11-26T04:55:50.928Z,30.33
2022-11-26T04:58:19.674Z,34.30
2022-11-26T05:00:51.303Z,31.92
2022-11-26T05:03:20.147Z,30.92
2022-11-26T05:05:49.068Z,28.65
2022-11-26T05:08:17.334Z,26.95
2022-11-26T05:10:45.354Z,29.27
2022-11-26T05:13:13.511Z,26.52
2022-11-26T05:15:41.618Z,31.77
2022-11-26T05:18:12.335Z,27.17
2022-11-26T05:20:40.381Z,28.70
2022-11-26T05:23:08.545Z,29.17
2022-11-26T05:25:36.736Z,27.90
2022-11-26T05:28:05.442Z,33.13
2022-11-26T05:30:33.637Z,29.80
2022-11-26T05:33:01.709Z,29.58
2022-11-26T05:35:31.200Z,29.92
2022-11-26T05:37:59.078Z,32.43
2022-11-26T05:40:27.078Z,32.47
2022-11-26T05:42:55.305Z,36.70
2022-11-26T05:45:23.432Z,37.83
2022-11-26T05:47:53.487Z,40.92
2022-11-26T05:50:21.532Z,35.47
2022-11-26T05:52:55.586Z,42.65
2022-11-26T05:55:23.598Z,39.13
2022-11-26T05:57:51.695Z,44.83
2022-11-26T06:00:20.245Z,44.90
2022-11-26T06:02:48.457Z,38.78
2022-11-26T06:05:16.563Z,39.50
2022-11-26T06:07:45.188Z,36.47
2022-11-26T06:10:15.131Z,46.22
2022-11-26T06:12:43.301Z,48.90
2022-11-26T06:15:11.832Z,38.60
2022-11-26T06:17:39.845Z,42.60
2022-11-26T06:20:09.172Z,40.22
2022-11-26T06:22:39.237Z,36.03
2022-11-26T06:25:09.137Z,44.03
2022-11-26T06:27:39.103Z,34.97
2022-11-26T06:30:09.745Z,41.75
2022-11-26T06:32:38.014Z,39.75
2022-11-26T06:35:07.263Z,32.58
2022-11-26T06:37:35.296Z,35.50
2022-11-26T06:40:03.946Z,39.22
2022-11-26T06:42:35.407Z,43.17
2022-11-26T06:45:05.746Z,40.67
2022-11-26T06:47:35.046Z,38.20
2022-11-26T06:50:09.255Z,46.33
2022-11-26T06:52:41.393Z,46.47
2022-11-26T06:55:10.332Z,41.33
2022-11-26T06:57:38.982Z,46.28
2022-11-26T07:00:09.911Z,35.20
2022-11-26T07:02:38.593Z,38.92
2022-11-26T07:05:06.603Z,37.92
2022-11-26T07:07:38.167Z,36.05
2022-11-26T07:10:07.880Z,40.42
2022-11-26T07:12:36.112Z,28.77
2022-11-26T07:15:04.413Z,42.03
2022-11-26T07:17:33.870Z,37.15
2022-11-26T07:20:02.057Z,37.97
2022-11-26T07:22:30.456Z,36.97
2022-11-26T07:24:58.948Z,36.15
2022-11-26T07:27:27.042Z,37.38
2022-11-26T07:29:55.012Z,39.17
2022-11-26T07:32:22.840Z,37.65
2022-11-26T07:34:52.167Z,40.30
2022-11-26T07:37:20.154Z,38.92
2022-11-26T07:39:48.642Z,38.72
2022-11-26T07:42:17.000Z,36.90
2022-11-26T07:44:45.398Z,35.33
2022-11-26T07:47:13.322Z,41.00
2022-11-26T07:49:41.488Z,42.05
2022-11-26T07:52:10.939Z,44.20
2022-11-26T07:54:39.638Z,43.43
2022-11-26T07:57:07.956Z,43.80
2022-11-26T07:59:36.032Z,40.92
2022-11-26T08:02:04.075Z,42.38
2022-11-26T08:04:32.426Z,44.25
2022-11-26T08:07:00.502Z,39.72
2022-11-26T08:09:30.406Z,40.60
2022-11-26T08:11:58.419Z,44.85
2022-11-26T08:14:26.429Z,45.58
2022-11-26T08:16:54.793Z,58.70
2022-11-26T08:19:23.047Z,47.42
2022-11-26T08:21:50.993Z,47.25
2022-11-26T08:24:20.572Z,46.17
2022-11-26T08:26:49.959Z,51.10
2022-11-26T08:29:17.923Z,54.03
2022-11-26T08:31:46.915Z,43.70
2022-11-26T08:34:17.320Z,41.22
2022-11-26T08:39:14.877Z,41.80
2022-11-26T08:41:46.178Z,41.58
2022-11-26T08:44:21.149Z,43.20
2022-11-26T08:46:49.250Z,39.30
2022-11-26T08:49:17.954Z,38.70
2022-11-26T08:51:46.190Z,39.15
2022-11-26T08:54:14.534Z,38.38
2022-11-26T08:56:42.550Z,36.00
2022-11-26T08:59:10.642Z,35.38
2022-11-26T09:01:40.305Z,37.63
2022-11-26T09:04:08.281Z,40.00
2022-11-26T09:06:37.846Z,33.10
2022-11-26T09:09:17.446Z,34.72
2022-11-26T09:11:48.961Z,44.63
2022-11-26T09:14:19.286Z,31.63
2022-11-26T09:19:17.808Z,40.15
2022-11-26T09:21:46.377Z,130.90
2022-11-26T09:24:15.010Z,36.83
2022-11-26T09:26:42.972Z,33.88
2022-11-26T09:29:14.758Z,35.40
2022-11-26T09:32:15.333Z,32.97
2022-11-26T09:37:02.624Z,31.70
2022-11-26T09:39:30.945Z,30.27
2022-11-26T09:42:06.451Z,33.15
2022-11-26T09:44:58.746Z,37.10
2022-11-26T09:47:29.019Z,35.08
2022-11-26T09:52:36.513Z,33.67
2022-11-26T09:55:16.556Z,30.30
2022-11-26T09:57:58.882Z,31.58
2022-11-26T10:00:30.072Z,32.30
2022-11-26T10:02:59.238Z,31.30
2022-11-26T10:05:40.823Z,30.73
2022-11-26T10:08:23.166Z,25.13
2022-11-26T10:11:01.189Z,29.52
2022-11-26T10:13:41.184Z,27.92
2022-11-26T10:16:15.696Z,30.60
2022-11-26T10:18:51.820Z,31.05
2022-11-26T10:21:37.986Z,26.45
2022-11-26T10:24:22.611Z,22.95
2022-11-26T10:26:51.297Z,29.63
2022-11-26T10:29:25.365Z,22.15
2022-11-26T10:31:59.528Z,24.77
2022-11-26T10:34:39.508Z,24.52
2022-11-26T10:37:09.442Z,26.38
2022-11-26T10:39:37.407Z,23.40
2022-11-26T10:42:12.372Z,18.00
2022-11-26T10:44:42.412Z,23.25
2022-11-26T10:49:50.280Z,24.85
2022-11-26T10:52:24.466Z,22.38
2022-11-26T10:55:09.324Z,28.17
2022-11-26T10:57:43.807Z,20.50
2022-11-26T11:00:31.627Z,17.52
2022-11-26T11:03:00.965Z,23.25
2022-11-26T11:05:29.964Z,21.23
2022-11-26T11:07:59.780Z,17.10
2022-11-26T11:10:27.956Z,19.05
2022-11-26T11:13:12.991Z,21.60
2022-11-26T11:15:42.501Z,28.48
2022-11-26T11:18:19.313Z,14.87
2022-11-26T11:20:55.656Z,17.00
2022-11-26T11:23:52.214Z,20.30
2022-11-26T11:26:20.903Z,13.85
2022-11-26T11:28:51.138Z,15.60
2022-11-26T11:31:21.169Z,19.45
2022-11-26T11:33:50.517Z,14.00
2022-11-26T11:36:22.242Z,18.02
2022-11-26T11:38:53.690Z,13.80
2022-11-26T11:41:26.966Z,17.90
2022-11-26T11:44:00.330Z,14.02
2022-11-26T11:46:44.521Z,12.60
2022-11-26T11:49:19.548Z,13.63
2022-11-26T11:52:05.065Z,17.83
2022-11-26T11:54:48.833Z,20.45
2022-11-26T11:57:32.032Z,15.02
2022-11-26T12:00:13.502Z,18.38
2022-11-26T12:03:14.195Z,14.55
2022-11-26T12:05:58.084Z,14.93
2022-11-26T12:08:38.834Z,21.35
2022-11-26T12:11:24.480Z,13.88
2022-11-26T12:13:57.418Z,13.52
2022-11-26T12:16:29.961Z,17.27
2022-11-26T12:19:03.401Z,20.75
2022-11-26T12:21:38.340Z,14.55
2022-11-26T12:24:10.306Z,17.17
2022-11-26T12:26:45.181Z,18.15
2022-11-26T12:29:19.485Z,20.00
2022-11-26T12:31:51.195Z,17.77
2022-11-26T12:34:29.946Z,15.90
2022-11-26T12:37:02.632Z,14.88
2022-11-26T12:39:39.802Z,16.35
2022-11-26T12:42:18.763Z,15.38
2022-11-26T12:44:51.707Z,18.98
2022-11-26T12:47:26.218Z,17.27
2022-11-26T12:50:06.739Z,16.35
2022-11-26T12:52:42.136Z,12.98
2022-11-26T12:55:18.813Z,15.65
2022-11-26T12:57:54.240Z,17.23
2022-11-26T13:00:30.148Z,14.90
2022-11-26T13:03:00.943Z,16.45
2022-11-26T13:05:38.027Z,12.80
2022-11-26T13:08:34.053Z,15.50
2022-11-26T13:11:18.404Z,19.42
2022-11-26T13:13:55.830Z,15.93
2022-11-26T13:16:34.802Z,18.45
2022-11-26T13:19:07.934Z,15.75
2022-11-26T13:21:51.041Z,15.63
2022-11-26T13:24:31.188Z,16.48
2022-11-26T13:27:14.521Z,18.30
2022-11-26T13:30:06.077Z,17.23
2022-11-26T13:33:13.547Z,13.80
2022-11-26T13:36:07.369Z,17.67
2022-11-26T13:38:50.139Z,15.48
2022-11-26T13:41:49.728Z,16.02
2022-11-26T13:44:32.126Z,11.52
2022-11-26T13:47:04.708Z,19.48
2022-11-26T13:49:40.315Z,16.42
2022-11-26T13:52:14.006Z,17.70
2022-11-26T13:54:47.127Z,13.95
2022-11-26T13:57:20.537Z,13.95
2022-11-26T13:59:50.655Z,18.13
2022-11-26T14:02:53.327Z,14.38
2022-11-26T14:05:21.475Z,11.00
2022-11-26T14:07:49.526Z,14.13
2022-11-26T14:10:43.782Z,15.75
2022-11-26T14:13:17.179Z,16.65
2022-11-26T14:16:10.585Z,15.75
2022-11-26T14:19:01.870Z,10.95
2022-11-26T14:21:31.666Z,14.07
2022-11-26T14:24:01.927Z,11.32
2022-11-26T14:29:11.777Z,20.90
2022-11-26T14:31:43.649Z,18.85
2022-11-26T14:34:18.617Z,10.85
2022-11-26T14:36:55.572Z,12.95
2022-11-26T14:39:23.646Z,20.35
2022-11-26T14:42:01.909Z,15.45
2022-11-26T14:44:34.063Z,16.05
2022-11-26T14:47:10.855Z,13.40
2022-11-26T14:49:42.738Z,16.92
2022-11-26T14:52:20.610Z,16.13
2022-11-26T14:54:52.844Z,13.02
2022-11-26T14:57:25.775Z,8.27
2022-11-26T14:59:58.933Z,8.77
2022-11-26T15:02:30.184Z,11.13
2022-11-26T15:05:02.000Z,14.10
2022-11-26T15:07:32.192Z,13.95
2022-11-26T15:10:05.940Z,12.00
2022-11-26T15:12:36.294Z,17.75
2022-11-26T15:17:35.433Z,15.13
2022-11-26T15:20:09.104Z,13.10
2022-11-26T15:22:42.239Z,18.00
2022-11-26T15:25:18.620Z,13.73
2022-11-26T15:27:54.749Z,14.57
2022-11-26T15:30:25.141Z,17.52
2022-11-26T15:33:03.897Z,14.38
2022-11-26T15:35:34.450Z,17.15
2022-11-26T15:38:02.801Z,11.85
2022-11-26T15:40:33.667Z,12.77
2022-11-26T15:43:05.166Z,32.85
2022-11-26T15:45:40.928Z,15.23
2022-11-26T15:48:27.608Z,27.17
2022-11-26T15:51:07.487Z,14.45
2022-11-26T15:53:38.555Z,20.08
2022-11-26T15:56:09.624Z,23.38
2022-11-26T15:58:41.118Z,21.05
2022-11-26T16:01:17.641Z,25.27
2022-11-26T16:03:48.242Z,30.65
2022-11-26T16:06:33.521Z,24.17
2022-11-26T16:09:06.725Z,19.92
2022-11-26T16:11:36.948Z,24.75
2022-11-26T16:17:02.508Z,15.32
2022-11-26T16:19:34.959Z,16.17
2022-11-26T16:22:07.251Z,14.00
2022-11-26T16:24:38.804Z,20.00
2022-11-26T16:27:24.763Z,18.80
2022-11-26T16:29:52.800Z,14.23
2022-11-26T16:32:21.442Z,15.85
2022-11-26T16:34:49.484Z,19.92
2022-11-26T16:37:23.792Z,22.60
2022-11-26T16:39:54.157Z,23.30
2022-11-26T16:42:24.320Z,17.33
2022-11-26T16:44:52.886Z,20.08
2022-11-26T16:47:24.762Z,21.30
2022-11-26T16:49:53.721Z,17.30
2022-11-26T16:52:23.738Z,19.85
2022-11-26T16:54:52.462Z,18.30
2022-11-26T16:57:23.202Z,16.15
2022-11-26T16:59:57.629Z,20.70
2022-11-26T17:02:28.746Z,17.77
2022-11-26T17:04:56.897Z,20.50
2022-11-26T17:07:29.905Z,14.73
2022-11-26T17:09:58.468Z,15.70
2022-11-26T17:12:26.815Z,27.20
2022-11-26T17:14:55.028Z,16.50
2022-11-26T17:17:25.591Z,16.88
2022-11-26T17:19:53.798Z,20.83
2022-11-26T17:22:21.725Z,21.25
2022-11-26T17:24:53.077Z,24.33
2022-11-26T17:27:23.411Z,18.30
2022-11-26T17:32:20.479Z,18.48
2022-11-26T17:34:49.084Z,20.83
2022-11-26T17:37:21.451Z,19.17
2022-11-26T17:39:49.768Z,22.13
2022-11-26T17:42:20.069Z,23.73
2022-11-26T17:47:18.141Z,21.67
2022-11-26T17:49:46.474Z,22.95
2022-11-26T17:52:14.666Z,18.75
2022-11-26T17:54:43.064Z,18.55
2022-11-26T17:57:12.111Z,19.27
2022-11-26T17:59:42.150Z,17.13
2022-11-26T18:02:10.886Z,20.27
2022-11-26T18:04:39.368Z,22.13
2022-11-26T18:07:09.233Z,18.80
2022-11-26T18:09:37.944Z,20.17
2022-11-26T18:12:07.844Z,16.88
2022-11-26T18:14:36.238Z,17.23
2022-11-26T18:17:07.470Z,20.75
2022-11-26T18:19:39.409Z,28.02
2022-11-26T18:22:13.572Z,23.40
2022-11-26T18:24:43.107Z,18.30
2022-11-26T18:27:11.247Z,20.42
2022-11-26T18:29:39.468Z,19.60
2022-11-26T18:32:09.100Z,18.55
2022-11-26T18:34:37.275Z,19.57
2022-11-26T18:37:05.702Z,17.48
2022-11-26T18:39:34.572Z,15.15
2022-11-26T18:42:35.484Z,21.02
2022-11-26T18:44:51.203Z,18.40
2022-11-26T18:47:20.992Z,35.75
2022-11-26T18:49:49.311Z,23.85
2022-11-26T18:52:18.089Z,18.42
2022-11-26T18:54:46.310Z,19.38
2022-11-26T18:57:15.973Z,18.10
2022-11-26T18:59:44.617Z,29.17
2022-11-26T19:02:14.262Z,20.08
2022-11-26T19:04:43.793Z,17.73
2022-11-26T19:07:14.112Z,18.13
2022-11-26T19:09:43.815Z,18.15
2022-11-26T19:12:13.808Z,18.77
2022-11-26T19:14:41.917Z,19.00
2022-11-26T19:17:10.104Z,20.75
2022-11-26T19:19:39.293Z,17.15
2022-11-26T19:22:10.402Z,17.05
2022-11-26T19:24:38.767Z,18.80
2022-11-26T19:27:07.036Z,17.20
2022-11-26T19:29:35.041Z,17.02
2022-11-26T19:32:03.477Z,17.85
2022-11-26T19:34:31.744Z,21.33
2022-11-26T19:37:00.132Z,22.40
2022-11-26T19:39:29.613Z,17.15
2022-11-26T19:41:57.732Z,20.08
2022-11-26T19:44:25.732Z,18.83
2022-11-26T19:46:53.797Z,12.90
2022-11-26T19:49:22.640Z,18.35
2022-11-26T19:51:51.397Z,16.38
2022-11-26T19:54:19.911Z,15.45
2022-11-26T19:56:49.546Z,12.88
2022-11-26T19:59:19.713Z,14.75
2022-11-26T20:04:19.717Z,19.83
2022-11-26T20:06:48.450Z,16.33
2022-11-26T20:09:16.495Z,17.98
2022-11-26T20:11:45.840Z,18.08
2022-11-26T20:14:16.288Z,16.37
2022-11-26T20:16:46.144Z,16.05
2022-11-26T20:19:14.542Z,21.90
2022-11-26T20:21:42.636Z,18.00
2022-11-26T20:24:14.527Z,17.33
2022-11-26T20:26:45.607Z,16.25
2022-11-26T20:29:17.719Z,19.50
2022-11-26T20:31:47.779Z,16.33
2022-11-26T20:34:17.372Z,17.88
2022-11-26T20:36:46.074Z,16.50
2022-11-26T20:39:15.798Z,25.08
2022-11-26T20:41:45.355Z,29.42
2022-11-26T20:44:14.467Z,40.28
2022-11-26T20:46:44.203Z,33.83
2022-11-26T20:49:12.457Z,39.95
2022-11-26T20:51:40.916Z,31.55
2022-11-26T20:54:11.193Z,35.80
2022-11-26T20:56:39.511Z,26.38
2022-11-26T20:59:09.714Z,31.25
2022-11-26T21:01:39.136Z,33.88
2022-11-26T21:04:08.558Z,30.48
2022-11-26T21:06:37.915Z,26.35
2022-11-26T21:09:07.223Z,29.02
2022-11-26T21:11:36.229Z,30.13
2022-11-26T21:14:04.637Z,27.58
2022-11-26T21:16:34.732Z,25.85
2022-11-26T21:19:02.844Z,34.05
2022-11-26T21:21:32.634Z,33.70
2022-11-26T21:24:04.702Z,33.90
2022-11-26T21:26:33.174Z,39.10
2022-11-26T21:29:02.684Z,39.50
2022-11-26T21:31:33.038Z,44.38
2022-11-26T21:34:02.713Z,36.10
2022-11-26T21:36:34.285Z,30.52
2022-11-26T21:39:03.047Z,36.58
2022-11-26T21:41:33.328Z,30.02
2022-11-26T21:44:04.202Z,31.63
2022-11-26T21:46:37.839Z,37.92
2022-11-26T21:49:07.716Z,33.25
2022-11-26T21:51:37.301Z,30.98
2022-11-26T21:54:06.704Z,30.77
2022-11-26T21:56:35.188Z,32.40
2022-11-26T21:59:03.446Z,32.33
2022-11-26T22:01:33.194Z,28.98
2022-11-26T22:04:03.766Z,29.83
2022-11-26T22:06:32.624Z,32.63
2022-11-26T22:09:02.162Z,25.85
2022-11-26T22:11:32.484Z,23.95
2022-11-26T22:14:00.884Z,39.63
2022-11-26T22:16:30.782Z,29.35
2022-11-26T22:19:00.108Z,28.02
2022-11-26T22:21:30.858Z,27.50
2022-11-26T22:24:00.091Z,30.80
2022-11-26T22:26:30.631Z,30.52
2022-11-26T22:28:59.125Z,25.65
2022-11-26T22:31:30.018Z,27.70
2022-11-26T22:34:00.750Z,33.53
2022-11-26T22:36:29.575Z,27.65
2022-11-26T22:38:58.843Z,30.05
2022-11-26T22:41:27.454Z,28.20
2022-11-26T22:43:58.789Z,27.33
2022-11-26T22:46:27.088Z,26.77
2022-11-26T22:48:58.610Z,28.80
2022-11-26T22:51:28.554Z,29.23
2022-11-26T22:53:58.867Z,26.08
2022-11-26T22:56:28.276Z,24.52
2022-11-26T22:58:58.349Z,24.70
2022-11-26T23:01:28.599Z,24.38
2022-11-26T23:06:28.673Z,26.55
2022-11-26T23:08:57.667Z,23.98
2022-11-26T23:11:28.244Z,25.80
2022-11-26T23:14:01.013Z,24.65
2022-11-26T23:16:29.687Z,24.27
2022-11-26T23:18:58.706Z,25.25
2022-11-26T23:21:30.493Z,24.63
2022-11-26T23:23:59.176Z,24.05
2022-11-26T23:26:29.633Z,22.35
2022-11-26T23:29:00.843Z,20.08
2022-11-26T23:31:30.948Z,22.77
2022-11-26T23:34:02.494Z,18.58
2022-11-26T23:36:32.009Z,19.70
2022-11-26T23:39:01.247Z,18.23
2022-11-26T23:41:29.572Z,17.77
2022-11-26T23:43:59.097Z,17.52
2022-11-26T23:46:29.534Z,15.77
2022-11-26T23:48:57.853Z,16.08
2022-11-26T23:51:27.432Z,14.75
2022-11-26T23:53:55.893Z,15.18
2022-11-26T23:56:26.566Z,13.43
2022-11-26T23:58:56.967Z,14.02
